createdAt,value
2018-08-18T00:00:00.168Z,12.10
2018-08-18T00:02:28.687Z,12.00
2018-08-18T00:04:57.224Z,12.00
2018-08-18T00:07:26.691Z,12.10
2018-08-18T00:09:55.189Z,12.00
2018-08-18T00:12:28.585Z,12.00
2018-08-18T00:14:57.360Z,12.00
2018-08-18T00:17:25.845Z,12.00
2018-08-18T00:19:54.937Z,11.90
2018-08-18T00:22:23.451Z,11.90
2018-08-18T00:24:59.033Z,11.90
2018-08-18T00:27:28.050Z,11.90
2018-08-18T00:30:01.789Z,11.90
2018-08-18T00:32:30.762Z,11.80
2018-08-18T00:34:59.252Z,11.70
2018-08-18T00:37:27.708Z,11.70
2018-08-18T00:39:56.873Z,11.70
2018-08-18T00:42:25.560Z,11.60
2018-08-18T00:44:54.105Z,11.60
2018-08-18T00:47:22.821Z,11.60
2018-08-18T00:49:51.259Z,11.50
2018-08-18T00:52:19.778Z,11.50
2018-08-18T00:54:48.300Z,11.50
2018-08-18T00:57:25.306Z,11.50
2018-08-18T00:59:54.559Z,11.50
2018-08-18T01:02:23.053Z,11.50
2018-08-18T01:04:55.965Z,11.50
2018-08-18T01:07:25.964Z,11.50
2018-08-18T01:09:54.564Z,11.50
2018-08-18T01:12:23.743Z,11.60
2018-08-18T01:14:52.235Z,11.60
2018-08-18T01:17:21.340Z,11.60
2018-08-18T01:19:50.516Z,11.60
2018-08-18T01:22:19.048Z,11.60
2018-08-18T01:24:48.068Z,11.50
2018-08-18T01:27:16.592Z,11.50
2018-08-18T01:29:49.304Z,11.50
2018-08-18T01:32:17.792Z,11.50
2018-08-18T01:34:46.264Z,11.50
2018-08-18T01:37:20.618Z,11.40
2018-08-18T01:39:53.171Z,11.40
2018-08-18T01:42:21.906Z,11.40
2018-08-18T01:44:52.196Z,11.40
2018-08-18T01:47:21.030Z,11.40
2018-08-18T01:49:49.542Z,11.40
2018-08-18T01:52:23.101Z,11.40
2018-08-18T01:54:51.622Z,11.40
2018-08-18T01:57:21.241Z,11.40
2018-08-18T01:59:49.986Z,11.40
2018-08-18T02:02:20.507Z,11.30
2018-08-18T02:04:49.406Z,11.30
2018-08-18T02:07:29.299Z,11.30
2018-08-18T02:09:57.879Z,11.40
2018-08-18T02:12:26.765Z,11.30
2018-08-18T02:14:55.731Z,11.30
2018-08-18T02:17:28.952Z,11.30
2018-08-18T02:19:57.738Z,11.30
2018-08-18T02:22:26.877Z,11.30
2018-08-18T02:24:55.379Z,11.30
2018-08-18T02:27:23.872Z,11.30
2018-08-18T02:30:04.428Z,11.30
2018-08-18T02:32:35.253Z,11.30
2018-08-18T02:35:03.879Z,11.30
2018-08-18T02:37:32.402Z,11.30
2018-08-18T02:40:00.990Z,11.30
2018-08-18T02:42:29.505Z,11.30
2018-08-18T02:44:57.985Z,11.40
2018-08-18T02:47:26.513Z,11.30
2018-08-18T02:49:55.779Z,11.30
2018-08-18T02:52:26.148Z,11.20
2018-08-18T02:54:58.577Z,11.30
2018-08-18T02:57:28.244Z,11.30
2018-08-18T02:59:59.190Z,11.50
2018-08-18T03:02:27.841Z,11.60
2018-08-18T03:04:56.355Z,11.60
2018-08-18T03:07:25.370Z,11.60
2018-08-18T03:09:54.120Z,11.60
2018-08-18T03:12:24.885Z,11.50
2018-08-18T03:14:53.349Z,11.40
2018-08-18T03:17:21.855Z,11.40
2018-08-18T03:19:50.304Z,11.40
2018-08-18T03:22:18.896Z,11.30
2018-08-18T03:24:47.328Z,11.30
2018-08-18T03:27:15.824Z,11.30
2018-08-18T03:29:49.705Z,11.20
2018-08-18T03:32:18.513Z,11.20
2018-08-18T03:34:46.988Z,11.20
2018-08-18T03:37:32.697Z,11.20
2018-08-18T03:40:01.164Z,11.20
2018-08-18T03:42:35.868Z,11.20
2018-08-18T03:45:06.949Z,11.20
2018-08-18T03:47:35.501Z,11.20
2018-08-18T03:50:04.702Z,11.20
2018-08-18T03:52:33.423Z,11.20
2018-08-18T03:55:01.839Z,11.20
2018-08-18T03:57:45.475Z,11.20
2018-08-18T04:00:14.871Z,11.10
2018-08-18T04:02:43.372Z,11.10
2018-08-18T04:05:11.867Z,11.10
2018-08-18T04:07:45.602Z,11.10
2018-08-18T04:10:14.072Z,11.10
2018-08-18T04:12:42.586Z,11.10
2018-08-18T04:15:11.079Z,11.10
2018-08-18T04:17:39.573Z,11.00
2018-08-18T04:20:08.048Z,11.00
2018-08-18T04:22:36.580Z,11.00
2018-08-18T04:25:05.828Z,11.00
2018-08-18T04:27:45.837Z,11.00
2018-08-18T04:30:16.697Z,11.00
2018-08-18T04:33:01.366Z,11.00
2018-08-18T04:35:30.767Z,11.10
2018-08-18T04:38:00.724Z,11.00
2018-08-18T04:40:29.255Z,11.00
2018-08-18T04:42:58.956Z,11.00
2018-08-18T04:45:27.484Z,11.00
2018-08-18T04:47:55.985Z,11.00
2018-08-18T04:50:24.560Z,11.10
2018-08-18T04:52:53.949Z,11.10
2018-08-18T04:55:22.492Z,11.10
2018-08-18T04:57:51.145Z,11.10
2018-08-18T05:00:19.624Z,11.20
2018-08-18T05:02:56.937Z,11.20
2018-08-18T05:05:27.461Z,11.20
2018-08-18T05:07:58.758Z,11.20
2018-08-18T05:10:27.579Z,11.30
2018-08-18T05:12:56.068Z,11.30
2018-08-18T05:15:24.603Z,11.30
2018-08-18T05:17:53.116Z,11.30
2018-08-18T05:20:23.652Z,11.40
2018-08-18T05:22:52.182Z,11.40
2018-08-18T05:25:26.441Z,11.50
2018-08-18T05:27:55.239Z,11.50
2018-08-18T05:30:23.956Z,11.60
2018-08-18T05:32:52.463Z,11.60
2018-08-18T05:35:20.918Z,11.70
2018-08-18T05:37:49.547Z,11.70
2018-08-18T05:40:18.072Z,11.80
2018-08-18T05:42:46.582Z,11.90
2018-08-18T05:45:23.362Z,12.00
2018-08-18T05:47:52.694Z,12.10
2018-08-18T05:50:23.175Z,12.20
2018-08-18T05:52:53.908Z,12.20
2018-08-18T05:55:22.456Z,12.30
2018-08-18T05:57:50.944Z,12.40
2018-08-18T06:00:22.165Z,12.50
2018-08-18T06:02:56.350Z,12.60
2018-08-18T06:05:28.833Z,12.70
2018-08-18T06:07:57.571Z,12.80
2018-08-18T06:10:26.096Z,12.90
2018-08-18T06:12:54.648Z,13.10
2018-08-18T06:15:23.175Z,13.20
2018-08-18T06:17:51.674Z,13.30
2018-08-18T06:20:20.149Z,13.40
2018-08-18T06:22:48.649Z,13.50
2018-08-18T06:25:17.172Z,13.70
2018-08-18T06:27:45.687Z,13.80
2018-08-18T06:30:14.197Z,13.90
2018-08-18T06:32:42.701Z,14.10
2018-08-18T06:37:50.150Z,14.40
2018-08-18T06:40:18.734Z,14.60
2018-08-18T06:42:53.560Z,14.70
2018-08-18T06:45:22.070Z,14.90
2018-08-18T06:47:50.555Z,15.10
2018-08-18T06:50:19.924Z,15.20
2018-08-18T06:52:48.403Z,15.40
2018-08-18T06:55:18.471Z,15.60
2018-08-18T06:57:49.506Z,15.80
2018-08-18T07:00:19.960Z,15.90
2018-08-18T07:02:48.657Z,16.10
2018-08-18T07:05:18.289Z,16.20
2018-08-18T07:07:47.656Z,16.40
2018-08-18T07:10:27.633Z,16.60
2018-08-18T07:12:58.441Z,16.70
2018-08-18T07:15:28.798Z,16.90
2018-08-18T07:17:57.404Z,16.90
2018-08-18T07:20:25.960Z,17.00
2018-08-18T07:22:54.702Z,17.00
2018-08-18T07:25:23.288Z,17.10
2018-08-18T07:27:58.162Z,17.20
2018-08-18T07:30:27.427Z,17.30
2018-08-18T07:32:55.976Z,17.40
2018-08-18T07:35:24.530Z,17.40
2018-08-18T07:37:53.057Z,17.50
2018-08-18T07:40:55.702Z,17.60
2018-08-18T07:43:27.177Z,17.60
2018-08-18T07:45:57.046Z,17.70
2018-08-18T07:48:25.576Z,17.90
2018-08-18T07:50:54.048Z,18.00
2018-08-18T07:53:22.621Z,18.20
2018-08-18T07:55:51.077Z,18.30
2018-08-18T07:58:20.938Z,18.40
2018-08-18T08:00:49.420Z,18.50
2018-08-18T08:03:18.889Z,18.60
2018-08-18T08:05:47.591Z,18.70
2018-08-18T08:08:16.085Z,18.80
2018-08-18T08:10:44.553Z,18.90
2018-08-18T08:13:14.204Z,19.00
2018-08-18T08:15:42.890Z,19.00
2018-08-18T08:18:14.417Z,19.10
2018-08-18T08:20:42.986Z,19.20
2018-08-18T08:23:11.463Z,19.40
2018-08-18T08:25:39.980Z,19.50
2018-08-18T08:28:08.519Z,19.60
2018-08-18T08:30:37.012Z,19.60
2018-08-18T08:33:05.590Z,19.80
2018-08-18T08:35:37.019Z,19.80
2018-08-18T08:38:05.683Z,19.90
2018-08-18T08:40:34.320Z,19.90
2018-08-18T08:43:03.018Z,20.00
2018-08-18T08:45:31.480Z,20.10
2018-08-18T08:48:00.118Z,20.20
2018-08-18T08:50:28.669Z,20.30
2018-08-18T08:52:58.029Z,20.30
2018-08-18T08:55:28.680Z,20.40
2018-08-18T08:57:57.200Z,20.40
2018-08-18T09:00:25.717Z,20.50
2018-08-18T09:02:54.232Z,20.60
2018-08-18T09:05:22.732Z,20.70
2018-08-18T09:07:51.397Z,20.80
2018-08-18T09:10:20.108Z,20.90
2018-08-18T09:12:48.684Z,20.90
2018-08-18T09:15:17.812Z,20.90
2018-08-18T09:17:46.391Z,21.00
2018-08-18T09:20:17.285Z,21.10
2018-08-18T09:22:59.194Z,21.10
2018-08-18T09:25:29.220Z,21.10
2018-08-18T09:27:58.840Z,21.20
2018-08-18T09:30:28.553Z,21.30
2018-08-18T09:33:05.092Z,21.30
2018-08-18T09:35:50.084Z,21.30
2018-08-18T09:38:18.657Z,21.50
2018-08-18T09:40:47.174Z,21.50
2018-08-18T09:43:20.889Z,21.70
2018-08-18T09:45:50.021Z,21.80
2018-08-18T09:48:18.568Z,21.90
2018-08-18T09:50:47.038Z,22.00
2018-08-18T09:53:15.604Z,22.00
2018-08-18T09:55:44.108Z,22.10
2018-08-18T09:58:12.807Z,22.20
2018-08-18T10:00:42.019Z,22.20
2018-08-18T10:03:11.256Z,22.30
2018-08-18T10:05:40.351Z,22.30
2018-08-18T10:08:09.348Z,22.30
2018-08-18T10:10:38.064Z,22.30
2018-08-18T10:13:06.863Z,22.30
2018-08-18T10:15:35.721Z,22.30
2018-08-18T10:18:04.244Z,22.30
2018-08-18T10:20:51.441Z,22.40
2018-08-18T10:23:20.378Z,22.50
2018-08-18T10:25:48.908Z,22.50
2018-08-18T10:28:18.562Z,22.50
2018-08-18T10:30:47.981Z,22.60
2018-08-18T10:33:16.521Z,22.70
2018-08-18T10:35:45.020Z,22.70
2018-08-18T10:38:13.606Z,22.80
2018-08-18T10:40:42.143Z,23.00
2018-08-18T10:43:10.667Z,23.00
2018-08-18T10:45:39.294Z,23.10
2018-08-18T10:48:07.952Z,23.10
2018-08-18T10:50:47.488Z,23.10
2018-08-18T10:53:15.963Z,23.10
2018-08-18T10:55:44.488Z,23.10
2018-08-18T10:59:26.067Z,23.20
2018-08-18T11:02:03.234Z,23.40
2018-08-18T11:04:33.563Z,23.50
2018-08-18T11:07:02.385Z,23.80
2018-08-18T11:09:31.760Z,24.20
2018-08-18T11:12:00.652Z,24.40
2018-08-18T11:14:29.478Z,24.20
2018-08-18T11:16:58.013Z,24.20
2018-08-18T11:19:26.532Z,24.10
2018-08-18T11:22:06.324Z,24.00
2018-08-18T11:24:34.827Z,24.10
2018-08-18T11:27:03.343Z,24.30
2018-08-18T11:29:31.901Z,24.70
2018-08-18T11:32:00.388Z,24.80
2018-08-18T11:34:28.912Z,24.60
2018-08-18T11:37:03.996Z,24.40
2018-08-18T11:39:32.504Z,24.20
2018-08-18T11:42:01.204Z,24.20
2018-08-18T11:44:29.662Z,24.10
2018-08-18T11:46:58.451Z,24.20
2018-08-18T11:49:27.121Z,24.20
2018-08-18T11:51:55.748Z,24.00
2018-08-18T11:54:24.387Z,24.00
2018-08-18T11:56:52.934Z,23.90
2018-08-18T11:59:21.489Z,23.80
2018-08-18T12:01:52.132Z,23.90
2018-08-18T12:04:21.844Z,23.90
2018-08-18T12:06:55.578Z,23.90
2018-08-18T12:09:24.471Z,24.00
2018-08-18T12:11:53.316Z,24.20
2018-08-18T12:14:22.190Z,24.30
2018-08-18T12:16:50.939Z,24.20
2018-08-18T12:19:19.466Z,24.00
2018-08-18T12:21:48.082Z,23.70
2018-08-18T12:24:23.204Z,23.60
2018-08-18T12:27:07.630Z,23.50
2018-08-18T12:29:36.210Z,23.50
2018-08-18T12:32:06.800Z,23.40
2018-08-18T12:34:35.336Z,23.40
2018-08-18T12:37:03.982Z,23.40
2018-08-18T12:39:32.360Z,23.40
2018-08-18T12:42:00.911Z,23.40
2018-08-18T12:44:34.551Z,23.50
2018-08-18T12:47:03.557Z,23.50
2018-08-18T12:49:32.404Z,23.60
2018-08-18T12:52:01.005Z,23.60
2018-08-18T12:54:29.847Z,23.60
2018-08-18T12:56:58.787Z,23.70
2018-08-18T12:59:27.443Z,23.90
2018-08-18T13:01:56.716Z,23.90
2018-08-18T13:04:25.374Z,23.80
2018-08-18T13:06:53.992Z,23.70
2018-08-18T13:09:23.825Z,23.40
2018-08-18T13:11:53.681Z,23.20
2018-08-18T13:14:24.387Z,23.10
2018-08-18T13:16:52.988Z,23.00
2018-08-18T13:19:23.841Z,22.90
2018-08-18T13:21:52.351Z,22.80
2018-08-18T13:24:20.812Z,22.80
2018-08-18T13:26:49.396Z,22.90
2018-08-18T13:29:17.872Z,23.00
2018-08-18T13:31:46.413Z,23.10
2018-08-18T13:34:16.208Z,23.20
2018-08-18T13:36:45.596Z,23.20
2018-08-18T13:39:18.418Z,23.30
2018-08-18T13:41:47.736Z,23.30
2018-08-18T13:44:51.144Z,23.30
2018-08-18T13:47:19.701Z,23.30
2018-08-18T13:49:55.474Z,23.40
2018-08-18T13:52:24.295Z,23.40
2018-08-18T13:54:52.958Z,23.40
2018-08-18T13:57:38.806Z,23.40
2018-08-18T14:00:17.096Z,23.30
2018-08-18T14:02:46.281Z,23.20
2018-08-18T14:05:19.953Z,23.00
2018-08-18T14:07:54.724Z,22.90
2018-08-18T14:10:23.284Z,22.70
2018-08-18T14:12:52.176Z,22.50
2018-08-18T14:15:20.633Z,22.30
2018-08-18T14:18:00.888Z,22.20
2018-08-18T14:20:29.841Z,22.10
2018-08-18T14:23:03.730Z,22.10
2018-08-18T14:25:32.269Z,22.20
2018-08-18T14:28:00.842Z,22.40
2018-08-18T14:30:30.493Z,22.50
2018-08-18T14:32:59.011Z,22.50
2018-08-18T14:35:27.567Z,22.50
2018-08-18T14:37:56.083Z,22.50
2018-08-18T14:40:24.609Z,22.40
2018-08-18T14:42:53.125Z,22.30
2018-08-18T14:45:23.099Z,22.20
2018-08-18T14:47:51.562Z,22.10
2018-08-18T14:50:23.737Z,21.90
2018-08-18T14:52:52.292Z,21.80
2018-08-18T14:55:20.817Z,21.70
2018-08-18T14:57:56.336Z,21.80
2018-08-18T15:00:24.966Z,21.80
2018-08-18T15:02:53.472Z,21.90
2018-08-18T15:05:21.952Z,22.10
2018-08-18T15:07:51.762Z,22.30
2018-08-18T15:10:46.937Z,22.50
2018-08-18T15:13:15.967Z,22.70
2018-08-18T15:15:44.674Z,22.80
2018-08-18T15:18:15.057Z,22.80
2018-08-18T15:20:44.166Z,22.70
2018-08-18T15:23:13.606Z,22.90
2018-08-18T15:25:42.836Z,23.10
2018-08-18T15:28:14.356Z,23.10
2018-08-18T15:30:44.071Z,23.00
2018-08-18T15:33:15.560Z,23.10
2018-08-18T15:35:44.013Z,23.20
2018-08-18T15:38:12.724Z,23.00
2018-08-18T15:40:41.440Z,22.80
2018-08-18T15:43:09.999Z,22.50
2018-08-18T15:45:58.470Z,22.30
2018-08-18T15:48:27.345Z,22.20
2018-08-18T15:50:55.782Z,22.20
2018-08-18T15:53:39.360Z,22.20
2018-08-18T15:56:08.155Z,22.20
2018-08-18T15:58:36.657Z,22.20
2018-08-18T16:01:05.794Z,22.30
2018-08-18T16:03:34.205Z,22.40
2018-08-18T16:06:02.657Z,22.60
2018-08-18T16:08:31.161Z,22.80
2018-08-18T16:10:59.597Z,23.00
2018-08-18T16:13:28.114Z,23.00
2018-08-18T16:15:56.560Z,22.90
2018-08-18T16:18:25.074Z,22.80
2018-08-18T16:20:53.685Z,22.80
2018-08-18T16:23:25.852Z,22.80
2018-08-18T16:25:54.577Z,22.80
2018-08-18T16:28:28.896Z,22.80
2018-08-18T16:30:57.390Z,22.80
2018-08-18T16:33:25.870Z,22.80
2018-08-18T16:35:54.363Z,22.70
2018-08-18T16:38:22.868Z,22.60
2018-08-18T16:40:51.353Z,22.50
2018-08-18T16:43:19.901Z,22.40
2018-08-18T16:45:48.394Z,22.30
2018-08-18T16:48:16.864Z,22.20
2018-08-18T16:50:45.434Z,22.00
2018-08-18T16:53:14.676Z,21.90
2018-08-18T16:55:44.533Z,21.90
2018-08-18T16:58:13.364Z,21.90
2018-08-18T17:00:57.382Z,21.90
2018-08-18T17:03:34.345Z,22.00
2018-08-18T17:06:04.205Z,22.00
2018-08-18T17:08:32.768Z,22.00
2018-08-18T17:11:01.314Z,22.00
2018-08-18T17:13:32.333Z,22.00
2018-08-18T17:16:00.904Z,22.00
2018-08-18T17:18:29.584Z,22.00
2018-08-18T17:21:01.392Z,22.00
2018-08-18T17:23:31.538Z,22.00
2018-08-18T17:26:00.084Z,21.90
2018-08-18T17:28:29.368Z,21.60
2018-08-18T17:30:58.043Z,21.50
2018-08-18T17:33:27.781Z,21.50
2018-08-18T17:35:56.329Z,21.30
2018-08-18T17:38:24.910Z,21.20
2018-08-18T17:40:53.468Z,21.20
2018-08-18T17:43:22.103Z,21.20
2018-08-18T17:45:53.911Z,21.20
2018-08-18T17:48:23.355Z,21.30
2018-08-18T17:50:52.497Z,21.20
2018-08-18T17:53:21.235Z,21.10
2018-08-18T17:55:55.186Z,21.00
2018-08-18T17:58:23.955Z,20.90
2018-08-18T18:00:52.526Z,20.80
2018-08-18T18:03:21.076Z,20.70
2018-08-18T18:05:52.781Z,20.70
2018-08-18T18:08:21.444Z,20.60
2018-08-18T18:10:50.018Z,20.60
2018-08-18T18:13:25.314Z,20.50
2018-08-18T18:15:54.094Z,20.50
2018-08-18T18:18:23.728Z,20.40
2018-08-18T18:20:54.424Z,20.30
2018-08-18T18:23:23.552Z,20.30
2018-08-18T18:25:52.146Z,20.10
2018-08-18T18:28:20.729Z,20.00
2018-08-18T18:30:51.803Z,19.90
2018-08-18T18:33:20.588Z,19.80
2018-08-18T18:35:50.580Z,19.70
2018-08-18T18:38:19.115Z,19.60
2018-08-18T18:40:47.677Z,19.50
2018-08-18T18:43:16.237Z,19.40
2018-08-18T18:45:44.979Z,19.30
2018-08-18T18:48:14.823Z,19.20
2018-08-18T18:50:46.472Z,19.10
2018-08-18T18:53:15.184Z,18.90
2018-08-18T18:55:52.110Z,18.90
2018-08-18T18:58:20.768Z,18.80
2018-08-18T19:00:55.240Z,18.70
2018-08-18T19:03:24.031Z,18.70
2018-08-18T19:05:52.769Z,18.60
2018-08-18T19:08:22.251Z,18.50
2018-08-18T19:10:50.867Z,18.50
2018-08-18T19:13:19.441Z,18.40
2018-08-18T19:15:48.033Z,18.40
2018-08-18T19:18:16.621Z,18.30
2018-08-18T19:20:45.125Z,18.20
2018-08-18T19:23:16.425Z,18.20
2018-08-18T19:25:46.276Z,18.10
2018-08-18T19:28:16.855Z,18.00
2018-08-18T19:30:45.400Z,17.90
2018-08-18T19:33:14.928Z,17.80
2018-08-18T19:35:44.413Z,17.80
2018-08-18T19:38:13.488Z,17.70
2018-08-18T19:40:43.236Z,17.60
2018-08-18T19:43:14.933Z,17.50
2018-08-18T19:45:43.759Z,17.50
2018-08-18T19:48:20.079Z,17.40
2018-08-18T19:50:54.851Z,17.40
2018-08-18T19:53:26.396Z,17.30
2018-08-18T19:55:56.160Z,17.20
2018-08-18T19:58:25.316Z,17.20
2018-08-18T20:00:53.824Z,17.10
2018-08-18T20:03:22.939Z,17.10
2018-08-18T20:05:51.556Z,17.00
2018-08-18T20:08:22.836Z,17.00
2018-08-18T20:10:56.513Z,17.00
2018-08-18T20:13:26.343Z,16.90
2018-08-18T20:15:56.219Z,16.90
2018-08-18T20:18:24.772Z,16.90
2018-08-18T20:20:53.468Z,16.90
2018-08-18T20:23:22.117Z,17.00
2018-08-18T20:25:51.267Z,17.00
2018-08-18T20:28:19.832Z,17.00
2018-08-18T20:30:48.432Z,17.00
2018-08-18T20:33:16.962Z,17.00
2018-08-18T20:35:45.470Z,16.90
2018-08-18T20:38:14.028Z,16.70
2018-08-18T20:40:42.586Z,16.60
2018-08-18T20:43:11.139Z,16.50
2018-08-18T20:45:44.988Z,16.40
2018-08-18T20:48:15.349Z,16.30
2018-08-18T20:50:43.864Z,16.20
2018-08-18T20:53:13.378Z,16.00
2018-08-18T20:55:43.597Z,16.00
2018-08-18T20:58:12.484Z,15.90
2018-08-18T21:00:41.124Z,15.80
2018-08-18T21:03:09.684Z,15.80
2018-08-18T21:05:38.204Z,15.80
2018-08-18T21:08:14.980Z,15.80
2018-08-18T21:10:43.538Z,15.80
2018-08-18T21:13:12.120Z,15.70
2018-08-18T21:15:40.655Z,15.70
2018-08-18T21:18:20.521Z,15.60
2018-08-18T21:20:49.679Z,15.60
2018-08-18T21:23:19.121Z,15.50
2018-08-18T21:25:49.494Z,15.40
2018-08-18T21:28:19.146Z,15.40
2018-08-18T21:30:47.936Z,15.30
2018-08-18T21:33:16.520Z,15.30
2018-08-18T21:35:45.369Z,15.20
2018-08-18T21:38:14.028Z,15.20
2018-08-18T21:40:42.812Z,15.20
2018-08-18T21:43:22.597Z,15.20
2018-08-18T21:45:53.460Z,15.10
2018-08-18T21:48:57.102Z,15.00
2018-08-18T21:51:26.904Z,15.00
2018-08-18T21:53:55.480Z,15.00
2018-08-18T21:56:23.976Z,15.00
2018-08-18T21:58:52.550Z,15.00
2018-08-18T22:01:23.000Z,15.00
2018-08-18T22:03:54.387Z,14.90
2018-08-18T22:06:23.123Z,14.80
2018-08-18T22:08:52.175Z,14.70
2018-08-18T22:11:21.051Z,14.70
2018-08-18T22:13:54.753Z,14.70
2018-08-18T22:16:24.096Z,14.70
2018-08-18T22:19:00.465Z,14.70
2018-08-18T22:21:29.977Z,14.70
2018-08-18T22:24:00.557Z,14.70
2018-08-18T22:26:29.980Z,14.70
2018-08-18T22:29:04.785Z,14.70
2018-08-18T22:31:34.047Z,14.80
2018-08-18T22:34:03.809Z,14.80
2018-08-18T22:36:33.665Z,14.80
2018-08-18T22:39:02.761Z,14.80
2018-08-18T22:41:31.267Z,14.70
2018-08-18T22:43:59.787Z,14.60
2018-08-18T22:46:30.198Z,14.60
2018-08-18T22:48:58.785Z,14.50
2018-08-18T22:51:27.315Z,14.40
2018-08-18T22:53:56.588Z,14.30
2018-08-18T22:56:30.552Z,14.30
2018-08-18T22:59:03.283Z,14.20
2018-08-18T23:01:32.770Z,14.20
2018-08-18T23:04:02.140Z,14.20
2018-08-18T23:06:33.839Z,14.10
2018-08-18T23:09:02.701Z,14.10
2018-08-18T23:11:32.099Z,14.10
2018-08-18T23:14:01.083Z,14.00
2018-08-18T23:16:29.681Z,14.00
2018-08-18T23:18:58.278Z,14.00
2018-08-18T23:21:28.603Z,14.00
2018-08-18T23:23:58.205Z,13.90
2018-08-18T23:26:26.749Z,13.90
2018-08-18T23:28:55.304Z,13.90
2018-08-18T23:31:23.879Z,13.90
2018-08-18T23:33:52.468Z,13.80
2018-08-18T23:36:21.049Z,13.90
2018-08-18T23:38:54.655Z,13.90
2018-08-18T23:41:23.233Z,13.90
2018-08-18T23:43:52.215Z,13.90
2018-08-18T23:46:20.759Z,13.90
2018-08-18T23:48:49.337Z,13.90
2018-08-18T23:51:17.992Z,13.80
2018-08-18T23:53:46.563Z,13.80
2018-08-18T23:56:15.102Z,13.80
2018-08-18T23:58:43.681Z,13.70
